Time;durP1;ratioP1;P1;durP2;ratioP2;P2;SDS_P1;SDS_P2;PMS_P1;PMS_P2;Temp;Humidity;BMP_temperature;BMP_pressure;BME280_temperature;BME280_humidity;BME280_pressure;Samples;Min_cycle;Max_cycle;Signal;HPM_P1;HPM_P2
2022/12/12 00:02:31;;;;;;;31.50;16.90;;;;;;;0.20;65.66;97756.05;227529;1234;138335;-63
2022/12/12 00:07:35;;;;;;;24.80;16.10;;;;;;;0.25;65.71;97752.17;226907;1237;138452;-64
2022/12/12 00:12:40;;;;;;;30.00;16.20;;;;;;;0.23;65.87;97751.55;227553;1240;138164;-63
2022/12/12 00:17:44;;;;;;;30.40;17.60;;;;;;;0.19;65.86;97750.14;226807;1244;138152;-64
2022/12/12 00:22:48;;;;;;;31.90;17.00;;;;;;;0.20;66.22;97745.08;226652;1237;138290;-64
2022/12/12 00:27:59;;;;;;;27.40;16.60;;;;;;;0.24;66.19;97745.98;226746;1234;138846;-62
2022/12/12 00:33:03;;;;;;;28.80;17.20;;;;;;;0.32;66.17;97745.82;226649;1234;140266;-63
2022/12/12 00:38:07;;;;;;;28.70;16.90;;;;;;;0.41;66.18;97742.11;226666;1237;139157;-65
2022/12/12 00:43:11;;;;;;;28.90;16.70;;;;;;;0.49;65.67;97742.83;226875;1237;138716;-64
2022/12/12 00:48:23;;;;;;;29.70;16.80;;;;;;;0.52;65.65;97738.49;227601;1241;138065;-63
2022/12/12 00:53:30;;;;;;;33.00;18.00;;;;;;;0.44;65.44;97741.42;226702;1235;138613;-63
2022/12/12 00:58:38;;;;;;;30.20;18.30;;;;;;;0.40;65.51;97734.81;227679;1223;138633;-64
2022/12/12 01:03:46;;;;;;;29.10;17.10;;;;;;;0.30;65.73;97739.06;226700;1238;138826;-63
2022/12/12 01:08:51;;;;;;;30.70;17.40;;;;;;;0.20;66.00;97737.73;227263;1227;138284;-64
2022/12/12 01:13:56;;;;;;;29.60;16.80;;;;;;;0.15;66.03;97728.17;227695;1234;138429;-64
2022/12/12 01:19:01;;;;;;;30.60;16.00;;;;;;;0.11;66.07;97725.92;226769;1231;138698;-64
2022/12/12 01:24:05;;;;;;;34.20;17.80;;;;;;;0.09;66.07;97724.94;226850;1230;138370;-62
2022/12/12 01:29:10;;;;;;;30.90;17.60;;;;;;;0.07;66.05;97718.20;226822;1237;139010;-61
2022/12/12 01:34:14;;;;;;;32.50;17.10;;;;;;;0.06;66.10;97715.64;226653;1237;137958;-63
2022/12/12 01:39:19;;;;;;;32.90;17.20;;;;;;;0.03;66.15;97712.13;227548;1234;138334;-62
2022/12/12 01:44:50;;;;;;;30.60;15.60;;;;;;;0.03;66.38;97710.71;227479;1220;139934;-61
2022/12/12 01:50:07;;;;;;;31.10;17.70;;;;;;;0.19;66.34;97709.89;226698;1238;138438;-62
2022/12/12 01:55:19;;;;;;;32.80;17.30;;;;;;;0.27;66.18;97705.00;226851;1238;138465;-61
2022/12/12 02:00:30;;;;;;;32.20;16.90;;;;;;;0.19;66.32;97706.21;226767;1238;140545;-61
2022/12/12 02:05:41;;;;;;;29.50;17.10;;;;;;;0.18;66.66;97705.36;226414;1240;138312;-63
2022/12/12 02:10:59;;;;;;;;;;;;;;;;;;;;;
2022/12/12 02:16:38;;;;;;;29.10;14.90;;;;;;;0.06;66.63;97702.91;226475;1234;138776;-64
2022/12/12 02:21:59;;;;;;;28.00;16.30;;;;;;;0.00;66.71;97706.66;226596;1237;138211;-64
2022/12/12 02:27:58;;;;;;;28.20;15.20;;;;;;;-0.07;66.97;97705.90;226166;1236;138518;-64
2022/12/12 02:33:14;;;;;;;29.40;15.70;;;;;;;-0.06;67.20;97708.84;226196;1235;139071;-63
2022/12/12 02:38:43;;;;;;;25.10;13.50;;;;;;;-0.07;67.08;97706.25;226175;1237;139329;-63
2022/12/12 02:43:55;;;;;;;29.30;15.30;;;;;;;-0.00;67.05;97709.98;226230;1238;138924;-64
2022/12/12 02:49:17;;;;;;;29.70;14.90;;;;;;;0.02;66.63;97703.79;226776;1239;138512;-65
2022/12/12 02:54:24;;;;;;;26.80;14.80;;;;;;;-0.02;66.67;97703.59;226972;1237;139467;-65
2022/12/12 02:59:33;;;;;;;26.00;14.60;;;;;;;-0.08;66.79;97698.80;226557;1239;138308;-65
2022/12/12 03:10:17;;;;;;;25.90;13.70;;;;;;;-0.21;66.96;97703.86;226695;1238;138492;-65
2022/12/12 03:15:50;;;;;;;25.90;13.90;;;;;;;-0.30;67.29;97702.29;227418;1239;138435;-64
2022/12/12 03:21:20;;;;;;;24.70;14.10;;;;;;;-0.37;67.44;97701.70;226532;1240;139591;-64
2022/12/12 03:26:41;;;;;;;21.80;12.50;;;;;;;-0.39;67.51;97697.97;226479;1240;138723;-65
2022/12/12 03:31:53;;;;;;;23.20;12.60;;;;;;;-0.38;67.81;97693.04;226555;1236;138757;-63
2022/12/12 03:37:10;;;;;;;21.30;11.90;;;;;;;-0.26;67.69;97694.11;227510;1227;138706;-65
2022/12/12 03:42:30;;;;;;;28.30;17.60;;;;;;;0.03;68.67;97690.67;226609;1238;138180;-64
2022/12/12 03:47:50;;;;;;;21.30;12.90;;;;;;;-0.04;67.60;97696.19;226555;1232;138708;-64
2022/12/12 03:53:09;;;;;;;27.70;16.00;;;;;;;-0.13;67.32;97697.05;227698;1231;139389;-65
2022/12/12 03:58:26;;;;;;;25.60;14.10;;;;;;;-0.06;67.76;97694.52;227547;1234;139538;-63
2022/12/12 04:03:57;;;;;;;21.50;12.60;;;;;;;-0.07;67.01;97702.94;227484;1245;138291;-63
2022/12/12 04:14:44;;;;;;;23.20;11.80;;;;;;;-0.20;67.01;97696.69;227625;1225;138276;-62
2022/12/12 04:26:39;;;;;;;69.30;40.00;;;;;;;-0.21;67.54;97697.05;226177;1240;138722;-64
2022/12/12 04:32:02;;;;;;;17.40;10.20;;;;;;;-0.14;67.86;97694.70;226737;1236;139312;-67
2022/12/12 04:37:55;;;;;;;17.00;10.30;;;;;;;-0.16;67.54;97698.77;226528;1240;138944;-66
2022/12/12 04:43:14;;;;;;;18.30;10.90;;;;;;;-0.15;67.63;97704.65;226632;1238;138681;-65
2022/12/12 04:48:23;;;;;;;19.30;10.40;;;;;;;-0.06;67.49;97706.57;226671;1240;138524;-65
2022/12/12 04:53:34;;;;;;;18.40;10.20;;;;;;;-0.06;67.36;97709.88;226506;1239;138232;-62
2022/12/12 04:58:39;;;;;;;18.90;10.90;;;;;;;-0.10;67.50;97706.73;226336;1237;138578;-62
2022/12/12 05:03:52;;;;;;;18.60;10.90;;;;;;;-0.12;67.50;97707.66;226779;1238;138762;-61
2022/12/12 05:08:57;;;;;;;21.00;10.00;;;;;;;-0.15;67.47;97712.50;226514;1240;138662;-62
2022/12/12 05:14:01;;;;;;;16.90;10.40;;;;;;;-0.19;67.43;97719.98;227437;1227;138437;-65
2022/12/12 05:19:05;;;;;;;16.60;10.40;;;;;;;-0.17;67.63;97719.22;226492;1240;138230;-63
2022/12/12 05:24:09;;;;;;;17.40;9.50;;;;;;;-0.15;67.43;97718.08;226618;1244;139036;-63
2022/12/12 05:29:13;;;;;;;17.40;10.50;;;;;;;-0.18;67.44;97710.70;227650;1227;139908;-63
2022/12/12 05:34:17;;;;;;;18.70;11.00;;;;;;;-0.04;67.46;97712.23;226552;1238;139012;-63
2022/12/12 05:39:21;;;;;;;17.40;11.40;;;;;;;0.04;67.54;97712.96;227522;1227;139415;-65
2022/12/12 05:44:24;;;;;;;17.40;10.80;;;;;;;0.13;67.26;97709.25;226680;1238;138186;-65
2022/12/12 05:49:27;;;;;;;19.20;12.00;;;;;;;0.10;67.15;97712.86;226641;1238;138220;-67
2022/12/12 05:54:30;;;;;;;19.60;11.10;;;;;;;0.07;67.15;97713.36;226601;1242;138300;-66
2022/12/12 05:59:34;;;;;;;19.90;11.70;;;;;;;0.05;67.27;97720.75;226753;1241;138507;-66
2022/12/12 06:04:37;;;;;;;19.00;11.10;;;;;;;-0.03;67.35;97727.87;226584;1241;140872;-66
2022/12/12 06:09:41;;;;;;;20.70;11.70;;;;;;;-0.04;67.65;97730.34;226233;1254;138241;-64
2022/12/12 06:14:44;;;;;;;21.30;11.70;;;;;;;-0.06;67.66;97734.95;227350;1234;138292;-64
2022/12/12 06:19:47;;;;;;;19.40;11.80;;;;;;;-0.08;67.78;97747.60;226482;1250;138081;-64
2022/12/12 06:24:50;;;;;;;23.10;12.10;;;;;;;-0.06;67.88;97753.45;227532;1248;138675;-64
2022/12/12 06:29:53;;;;;;;19.20;12.20;;;;;;;0.01;67.82;97752.83;226701;1240;138399;-66
2022/12/12 06:34:56;;;;;;;22.00;12.70;;;;;;;0.17;67.64;97751.64;226908;1240;138607;-66
2022/12/12 06:39:59;;;;;;;22.50;12.40;;;;;;;0.26;67.37;97757.19;226485;1242;137575;-63
2022/12/12 06:45:03;;;;;;;21.20;12.20;;;;;;;0.22;67.36;97761.70;227522;1237;139446;-65
2022/12/12 06:50:06;;;;;;;21.50;12.30;;;;;;;0.23;67.33;97764.65;226668;1235;138167;-61
2022/12/12 06:55:13;;;;;;;20.90;12.20;;;;;;;0.17;67.47;97764.55;226560;1247;138563;-62
2022/12/12 07:00:17;;;;;;;21.10;12.50;;;;;;;0.15;67.44;97767.23;227580;1237;138552;-64
2022/12/12 07:05:21;;;;;;;21.10;12.50;;;;;;;0.12;67.48;97768.96;226257;1242;137836;-62
2022/12/12 07:10:25;;;;;;;18.80;11.60;;;;;;;0.15;67.55;97771.77;226409;1244;138922;-63
2022/12/12 07:15:50;;;;;;;22.80;13.70;;;;;;;0.20;67.55;97769.30;226286;1238;138530;-63
2022/12/12 07:20:54;;;;;;;23.00;13.20;;;;;;;0.22;67.52;97778.45;227340;1244;138863;-62
2022/12/12 07:26:08;;;;;;;23.10;13.80;;;;;;;0.17;67.48;97771.50;227428;1245;138450;-63
2022/12/12 07:31:14;;;;;;;23.30;14.30;;;;;;;0.16;67.80;97775.77;227481;1239;139415;-65
2022/12/12 07:36:17;;;;;;;25.30;14.50;;;;;;;0.21;67.58;97773.79;226206;1227;138813;-64
2022/12/12 07:41:23;;;;;;;26.40;14.90;;;;;;;0.30;67.37;97773.60;226670;1240;139812;-62
2022/12/12 07:46:26;;;;;;;26.10;15.60;;;;;;;0.37;67.27;97776.27;226640;1248;138444;-65
2022/12/12 07:51:29;;;;;;;29.70;16.80;;;;;;;0.37;66.99;97778.20;226670;1244;138136;-64
2022/12/12 07:56:33;;;;;;;27.80;16.60;;;;;;;0.39;67.18;97774.28;226735;1249;138098;-63
2022/12/12 08:01:41;;;;;;;30.50;16.10;;;;;;;0.40;67.04;97769.89;226601;1234;138556;-64
2022/12/12 08:06:59;;;;;;;30.20;16.20;;;;;;;0.40;66.93;97771.80;227409;1226;138092;-62
2022/12/12 08:12:11;;;;;;;30.50;17.30;;;;;;;0.37;66.97;97775.93;227637;1235;138159;-65
2022/12/12 08:17:14;;;;;;;35.50;18.20;;;;;;;0.39;66.75;97780.05;226872;1250;138502;-67
2022/12/12 08:22:17;;;;;;;29.80;17.10;;;;;;;0.29;66.82;97787.96;226743;1242;138204;-65
2022/12/12 08:27:21;;;;;;;31.90;17.20;;;;;;;0.26;67.13;97789.29;227571;1234;138601;-65
2022/12/12 08:32:24;;;;;;;31.80;18.80;;;;;;;0.29;67.33;97793.89;226720;1234;137920;-63
2022/12/12 08:37:30;;;;;;;28.10;16.20;;;;;;;0.28;67.33;97785.73;226795;1238;138119;-64
2022/12/12 08:42:43;;;;;;;28.50;16.30;;;;;;;0.31;67.30;97795.02;226419;1234;138855;-62
2022/12/12 08:47:46;;;;;;;26.70;16.70;;;;;;;0.44;67.24;97792.92;226633;1243;138469;-62
2022/12/12 08:53:03;;;;;;;31.40;17.00;;;;;;;0.48;66.69;97793.46;227620;1233;138599;-64
2022/12/12 08:58:07;;;;;;;29.70;16.70;;;;;;;0.55;66.78;97796.48;226782;1234;138613;-61
2022/12/12 09:03:11;;;;;;;31.10;18.30;;;;;;;0.55;66.38;97796.98;226699;1235;138202;-61
2022/12/12 09:08:15;;;;;;;30.90;17.00;;;;;;;0.55;66.38;97793.15;227496;1242;138567;-62
2022/12/12 09:13:19;;;;;;;34.50;19.30;;;;;;;0.54;66.28;97790.58;227420;1233;137738;-64
2022/12/12 09:18:23;;;;;;;31.50;18.00;;;;;;;0.48;66.44;97793.79;227458;1234;138949;-63
2022/12/12 09:23:27;;;;;;;30.10;18.50;;;;;;;0.44;66.51;97796.59;226502;1234;139676;-61
2022/12/12 09:28:31;;;;;;;29.00;17.60;;;;;;;0.46;66.58;97796.48;226232;1240;139145;-62
2022/12/12 09:33:35;;;;;;;29.10;17.30;;;;;;;0.52;66.47;97798.20;226531;1240;139382;-62
2022/12/12 09:38:39;;;;;;;30.00;17.20;;;;;;;0.55;66.17;97798.38;227595;1239;138616;-63
2022/12/12 09:44:11;;;;;;;30.10;18.90;;;;;;;0.60;66.19;97800.09;226433;1238;138327;-62
2022/12/12 09:49:23;;;;;;;30.20;17.40;;;;;;;0.63;66.06;97792.64;227505;1231;139880;-63
2022/12/12 09:54:27;;;;;;;31.80;18.90;;;;;;;0.61;66.16;97795.69;226630;1238;138496;-61
2022/12/12 09:59:38;;;;;;;31.40;18.20;;;;;;;0.62;66.32;97790.77;226477;1233;138009;-62
2022/12/12 10:04:50;;;;;;;31.70;17.00;;;;;;;0.62;66.56;97792.52;227440;1227;138405;-63
2022/12/12 10:10:31;;;;;;;29.20;17.40;;;;;;;0.65;66.51;97795.50;226571;1237;139024;-63
2022/12/12 10:15:41;;;;;;;31.30;18.10;;;;;;;0.68;66.42;97795.58;226632;1234;138164;-63
2022/12/12 10:20:52;;;;;;;33.10;17.10;;;;;;;0.73;66.17;97799.39;227490;1234;138098;-64
2022/12/12 10:26:20;;;;;;;32.20;18.50;;;;;;;0.72;66.05;97794.56;226564;1240;138338;-64
2022/12/12 10:31:36;;;;;;;27.00;16.90;;;;;;;0.76;65.92;97795.09;226659;1241;139412;-62
2022/12/12 10:36:58;;;;;;;28.80;18.20;;;;;;;0.86;65.41;97788.52;227502;1238;139288;-61
2022/12/12 10:42:05;;;;;;;29.60;17.70;;;;;;;0.90;65.69;97786.61;227456;1234;139067;-62
2022/12/12 10:47:11;;;;;;;28.70;17.80;;;;;;;0.90;65.69;97783.61;226437;1245;139503;-63
2022/12/12 10:52:21;;;;;;;31.30;17.50;;;;;;;0.89;65.55;97781.77;227179;1243;139058;-61
2022/12/12 10:57:34;;;;;;;35.10;18.40;;;;;;;0.79;65.66;97785.02;226657;1234;138834;-62
2022/12/12 11:02:41;;;;;;;27.70;17.40;;;;;;;0.74;66.04;97783.27;226605;1239;138592;-64
2022/12/12 11:07:56;;;;;;;31.60;17.80;;;;;;;0.69;66.16;97788.21;226349;1238;138874;-63
2022/12/12 11:13:13;;;;;;;26.40;16.50;;;;;;;0.66;66.50;97787.27;226675;1233;138338;-60
2022/12/12 11:18:20;;;;;;;27.40;14.90;;;;;;;0.65;66.55;97785.07;226671;1237;138953;-63
2022/12/12 11:23:27;;;;;;;26.30;15.80;;;;;;;0.67;66.90;97784.09;227638;1227;138361;-65
2022/12/12 11:28:35;;;;;;;27.00;15.40;;;;;;;0.71;67.12;97786.38;226218;1240;139223;-62
2022/12/12 11:33:47;;;;;;;91.40;48.60;;;;;;;0.82;67.49;97782.59;227453;1238;139017;-64
2022/12/12 11:38:55;;;;;;;29.70;16.50;;;;;;;0.86;66.85;97780.83;226755;1227;138642;-64
2022/12/12 11:44:00;;;;;;;;;;;;;;;0.80;66.74;97786.16;226291;1236;138990;-63
2022/12/12 11:55:53;;;;;;;25.60;16.30;;;;;;;0.66;67.16;97784.50;226388;1239;138619;-64
2022/12/12 12:01:39;;;;;;;25.00;15.10;;;;;;;0.58;67.26;97791.61;226383;1230;138516;-65
2022/12/12 12:07:39;;;;;;;26.20;16.10;;;;;;;0.54;67.47;97792.17;226485;1234;137844;-64
2022/12/12 12:13:35;;;;;;;25.60;15.10;;;;;;;0.55;67.89;97793.49;226146;1238;139114;-64
2022/12/12 12:19:20;;;;;;;22.70;15.70;;;;;;;0.61;67.83;97788.87;226379;1230;138733;-64
2022/12/12 12:24:54;;;;;;;27.30;16.40;;;;;;;0.64;67.66;97789.98;226238;1243;138947;-63
2022/12/12 12:30:50;;;;;;;24.00;14.70;;;;;;;0.63;67.95;97788.61;226508;1234;138794;-63
2022/12/12 12:36:21;;;;;;;27.00;15.00;;;;;;;0.64;67.76;97789.27;226895;1230;138424;-64
2022/12/12 12:42:39;;;;;;;25.80;15.50;;;;;;;0.64;67.89;97792.39;226040;1237;138119;-64
2022/12/12 12:48:31;;;;;;;25.10;15.40;;;;;;;0.62;67.82;97791.80;225648;1240;138866;-64
2022/12/12 12:53:56;;;;;;;25.00;15.10;;;;;;;0.58;67.93;97792.67;226121;1237;138699;-64
2022/12/12 12:59:19;;;;;;;25.50;15.80;;;;;;;0.60;67.86;97795.75;226838;1227;138999;-64
2022/12/12 13:04:42;;;;;;;28.20;15.20;;;;;;;0.68;67.83;97800.99;226583;1234;139521;-64
2022/12/12 13:10:00;;;;;;;23.10;14.40;;;;;;;0.78;67.72;97804.26;227446;1241;138716;-65
2022/12/12 13:15:42;;;;;;;27.50;15.70;;;;;;;0.75;67.68;97806.63;226658;1234;138704;-64
2022/12/12 13:20:54;;;;;;;26.40;16.10;;;;;;;0.68;67.70;97811.63;227401;1227;138613;-64
2022/12/12 13:26:20;;;;;;;25.80;15.30;;;;;;;0.68;67.87;97818.23;226503;1237;138990;-64
2022/12/12 13:31:46;;;;;;;23.60;14.10;;;;;;;0.71;67.64;97822.70;226516;1235;138234;-64
2022/12/12 13:36:57;;;;;;;22.40;13.90;;;;;;;0.65;67.80;97825.55;227387;1227;138486;-63
2022/12/12 13:42:15;;;;;;;20.60;13.20;;;;;;;0.65;67.91;97831.11;227505;1231;138914;-65
2022/12/12 13:47:23;;;;;;;22.00;13.70;;;;;;;0.70;68.37;97837.36;226564;1237;141292;-64
2022/12/12 13:52:34;;;;;;;21.90;13.10;;;;;;;0.76;68.01;97838.02;226534;1237;140070;-66
2022/12/12 13:57:56;;;;;;;24.90;14.80;;;;;;;0.79;67.97;97837.86;226409;1249;139368;-68
2022/12/12 14:03:11;;;;;;;22.70;13.90;;;;;;;0.81;67.73;97844.09;226706;1240;138583;-64
2022/12/12 14:08:17;;;;;;;20.10;13.50;;;;;;;0.76;67.79;97853.38;226579;1227;138362;-65
2022/12/12 14:13:21;;;;;;;23.60;14.70;;;;;;;0.75;68.03;97853.78;226484;1233;138829;-68
2022/12/12 14:18:51;;;;;;;25.20;15.30;;;;;;;0.75;68.14;97853.93;226503;1240;139401;-64
2022/12/12 14:24:32;;;;;;;28.50;15.80;;;;;;;0.75;68.04;97856.56;227224;1224;138040;-63
2022/12/12 14:29:47;;;;;;;26.20;16.20;;;;;;;0.78;68.11;97859.39;226516;1239;138135;-65
2022/12/12 14:35:48;;;;;;;26.50;15.50;;;;;;;0.68;68.30;97870.97;227227;1230;138511;-64
2022/12/12 14:42:02;;;;;;;25.20;16.70;;;;;;;0.82;68.38;97868.28;227029;1229;138645;-65
2022/12/12 14:47:24;;;;;;;25.00;15.10;;;;;;;0.92;68.17;97869.80;227472;1237;138675;-64
2022/12/12 14:52:34;;;;;;;26.60;16.20;;;;;;;0.90;68.12;97871.11;226351;1241;138412;-64
2022/12/12 14:57:41;;;;;;;28.90;16.70;;;;;;;0.82;68.26;97868.30;226519;1240;138038;-64
2022/12/12 15:03:55;;;;;;;26.10;15.10;;;;;;;0.81;68.34;97880.38;227508;1229;138651;-63
2022/12/12 15:09:50;;;;;;;26.80;15.80;;;;;;;0.78;68.36;97884.73;225982;1243;138219;-65
2022/12/12 15:15:23;;;;;;;25.50;15.60;;;;;;;0.75;68.39;97887.10;225913;1240;138504;-65
2022/12/12 15:21:14;;;;;;;30.20;15.80;;;;;;;0.72;68.52;97891.73;225800;1240;138402;-65
2022/12/12 15:26:36;;;;;;;25.80;15.20;;;;;;;0.66;68.68;97895.64;226734;1231;140102;-65
2022/12/12 15:32:22;;;;;;;27.30;16.40;;;;;;;0.70;68.77;97903.38;226009;1237;139899;-66
2022/12/12 15:37:58;;;;;;;134.70;71.00;;;;;;;0.78;68.75;97904.95;227572;1230;138892;-66
2022/12/12 15:43:26;;;;;;;30.60;18.20;;;;;;;0.84;69.56;97906.46;226347;1243;138992;-65
2022/12/12 15:48:49;;;;;;;28.20;17.10;;;;;;;0.91;68.71;97908.41;226615;1238;138272;-67
2022/12/12 15:54:15;;;;;;;26.20;17.20;;;;;;;0.88;68.49;97909.77;226694;1206;140270;-66
2022/12/12 15:59:28;;;;;;;30.00;17.90;;;;;;;0.84;68.53;97914.11;225841;1241;138556;-66
2022/12/12 16:04:32;;;;;;;28.90;17.90;;;;;;;0.80;68.65;97920.23;225877;1235;138926;-65
2022/12/12 16:09:35;;;;;;;26.10;15.70;;;;;;;0.77;68.76;97923.00;225853;1241;138340;-66
2022/12/12 16:14:40;;;;;;;29.00;17.20;;;;;;;0.72;68.92;97927.36;226002;1247;138205;-66
2022/12/12 16:20:29;;;;;;;;;;;;;;;0.79;69.13;97926.58;225914;1237;138925;-64
2022/12/12 16:25:47;;;;;;;29.50;17.70;;;;;;;0.93;68.85;97929.67;226156;1239;125032;-63
2022/12/12 16:31:11;;;;;;;30.90;17.70;;;;;;;1.00;68.45;97933.55;226065;1241;139024;-64
2022/12/12 16:37:11;;;;;;;28.40;17.20;;;;;;;1.01;68.42;97934.38;226190;1239;138437;-63
2022/12/12 16:42:22;;;;;;;31.70;18.70;;;;;;;1.04;68.20;97935.45;226614;1236;138377;-63
2022/12/12 16:47:29;;;;;;;27.80;17.70;;;;;;;1.03;68.24;97942.86;225535;1244;138590;-63
2022/12/12 16:52:45;;;;;;;35.20;19.50;;;;;;;0.95;68.41;97951.05;225701;1241;139422;-64
2022/12/12 17:03:13;;;;;;;31.30;19.50;;;;;;;1.08;69.26;97961.68;223318;1253;636195;-63
2022/12/12 17:08:22;;;;;;;29.30;18.30;;;;;;;1.08;68.50;97970.58;224989;1240;137591;-64
2022/12/12 17:13:28;;;;;;;;;;;;;;;1.11;68.43;97979.52;225123;1244;138605;-64
2022/12/12 17:18:40;;;;;;;32.20;19.40;;;;;;;1.19;68.27;97983.05;226489;1236;124601;-64
2022/12/12 17:24:06;;;;;;;34.30;19.00;;;;;;;1.22;68.03;97986.10;226190;1233;137735;-64
2022/12/12 17:29:14;;;;;;;31.00;18.30;;;;;;;1.08;68.18;97982.65;225998;1239;138170;-64
2022/12/12 17:34:23;;;;;;;30.90;18.80;;;;;;;1.04;68.43;97992.61;224964;1244;139071;-63
2022/12/12 17:39:28;;;;;;;30.90;17.90;;;;;;;1.02;68.53;97996.87;225045;1243;138487;-64
2022/12/12 17:50:20;;;;;;;32.90;19.60;;;;;;;0.96;68.97;98001.46;226037;1234;138342;-64
2022/12/12 17:55:28;;;;;;;32.40;18.40;;;;;;;0.98;69.00;98002.29;225096;1246;139140;-63
2022/12/12 18:01:11;;;;;;;31.60;18.10;;;;;;;1.01;69.18;98007.73;225026;1250;139857;-64
2022/12/12 18:06:54;;;;;;;33.70;19.80;;;;;;;1.10;69.02;98016.98;224911;1243;139094;-64
2022/12/12 18:12:08;;;;;;;30.10;18.80;;;;;;;1.14;69.04;98016.63;226153;1239;138645;-63
2022/12/12 18:17:14;;;;;;;;;;;;;;;1.15;68.97;98020.23;225062;1244;137706;-63
2022/12/12 18:22:32;;;;;;;31.00;18.60;;;;;;;1.16;68.98;98026.33;225092;1247;123921;-63
2022/12/12 18:28:09;;;;;;;32.40;19.30;;;;;;;1.16;68.93;98029.32;224997;1245;137747;-63
2022/12/12 18:33:13;;;;;;;33.30;20.50;;;;;;;1.15;69.09;98031.26;224972;1245;137582;-64
2022/12/12 18:38:37;;;;;;;38.40;20.40;;;;;;;1.11;69.23;98033.52;225037;1236;138602;-64
2022/12/12 18:44:07;;;;;;;34.00;20.70;;;;;;;1.15;70.09;98042.98;225980;1233;138770;-64
2022/12/12 18:49:18;;;;;;;32.10;19.00;;;;;;;1.21;69.48;98047.45;225085;1249;139439;-63
2022/12/12 18:54:40;;;;;;;35.50;20.60;;;;;;;1.31;69.28;98056.99;225799;1241;138220;-63
2022/12/12 19:00:39;;;;;;;34.90;20.40;;;;;;;1.41;68.98;98059.40;225045;1236;138334;-63
2022/12/12 19:05:56;;;;;;;35.50;20.60;;;;;;;1.41;68.69;98069.17;224929;1244;137814;-64
2022/12/12 19:11:05;;;;;;;34.10;19.70;;;;;;;1.41;68.83;98072.13;224871;1248;138245;-64
2022/12/12 19:16:47;;;;;;;;;;;;;;;;;;;;;
2022/12/12 19:21:55;;;;;;;35.40;21.10;;;;;;;1.41;68.75;98088.38;224985;1244;137858;-63
2022/12/12 19:27:00;;;;;;;36.50;21.10;;;;;;;1.44;68.80;98095.95;225713;1242;138500;-63
2022/12/12 19:32:11;;;;;;;34.70;19.70;;;;;;;1.41;68.79;98098.88;225695;1236;138495;-64
2022/12/12 19:38:12;;;;;;;37.70;21.50;;;;;;;1.40;68.93;98106.77;225645;1240;137663;-64
2022/12/12 19:43:41;;;;;;;37.00;20.90;;;;;;;1.42;69.06;98113.50;226851;1230;137990;-64
2022/12/12 19:48:59;;;;;;;36.40;21.40;;;;;;;1.49;69.23;98119.71;225965;1244;139911;-63
2022/12/12 19:54:26;;;;;;;112.20;64.00;;;;;;;1.61;69.87;98118.35;225861;1242;138986;-63
2022/12/12 19:59:32;;;;;;;34.70;21.50;;;;;;;1.93;70.27;98120.88;225792;1236;138535;-62
2022/12/12 20:04:40;;;;;;;37.10;20.70;;;;;;;2.02;68.73;98127.48;225539;1243;138009;-64
2022/12/12 20:09:47;;;;;;;33.00;19.70;;;;;;;1.97;68.25;98134.02;225855;1241;139241;-63
2022/12/12 20:14:51;;;;;;;32.70;18.80;;;;;;;1.92;68.37;98142.43;225849;1240;138258;-63
2022/12/12 20:19:59;;;;;;;30.40;18.20;;;;;;;1.92;68.25;98150.29;225608;1238;138913;-63
2022/12/12 20:25:04;;;;;;;31.50;19.00;;;;;;;1.90;68.02;98152.33;226833;1230;138281;-64
2022/12/12 20:30:23;;;;;;;52.30;31.40;;;;;;;1.92;68.12;98158.02;226867;1230;138274;-63
2022/12/12 20:35:28;;;;;;;15.10;9.80;;;;;;;1.97;68.31;98158.67;225926;1230;138239;-62
2022/12/12 20:40:47;;;;;;;14.20;8.60;;;;;;;2.02;67.44;98160.89;225728;1238;138598;-64
2022/12/12 20:45:52;;;;;;;12.80;7.50;;;;;;;2.10;66.79;98167.39;226747;1238;138536;-64
2022/12/12 20:51:02;;;;;;;13.80;7.40;;;;;;;2.18;66.24;98174.05;226004;1236;139109;-63
2022/12/12 20:56:12;;;;;;;13.00;7.70;;;;;;;2.18;65.73;98177.21;226827;1237;138149;-62
2022/12/12 21:01:18;;;;;;;16.20;8.90;;;;;;;2.13;65.89;98185.97;225851;1238;139366;-62
2022/12/12 21:06:53;;;;;;;15.20;8.70;;;;;;;2.14;66.09;98195.90;226728;1233;137670;-63
2022/12/12 21:11:59;;;;;;;11.70;7.80;;;;;;;2.12;65.99;98201.95;225827;1234;138351;-64
2022/12/12 21:17:04;;;;;;;11.60;7.30;;;;;;;2.03;65.98;98203.52;225920;1238;137779;-63
2022/12/12 21:22:08;;;;;;;12.90;8.50;;;;;;;1.95;66.38;98207.54;225783;1240;137859;-62
2022/12/12 21:27:12;;;;;;;15.50;8.80;;;;;;;1.97;66.42;98209.76;225670;1237;138105;-64
2022/12/12 21:32:16;;;;;;;12.10;8.30;;;;;;;1.91;66.49;98217.66;225806;1231;138181;-63
2022/12/12 21:37:23;;;;;;;13.30;8.50;;;;;;;1.87;66.62;98222.90;226971;1233;138415;-64
2022/12/12 21:42:52;;;;;;;13.40;8.80;;;;;;;1.88;66.53;98225.13;226859;1230;138617;-63
2022/12/12 21:47:57;;;;;;;15.40;8.40;;;;;;;1.89;66.41;98229.29;225914;1241;137914;-62
2022/12/12 21:58:39;;;;;;;15.30;9.30;;;;;;;2.05;66.41;98232.64;226052;1225;139923;-65
2022/12/12 22:03:43;;;;;;;15.80;9.80;;;;;;;2.15;65.94;98244.49;225544;1233;138568;-65
2022/12/12 22:08:47;;;;;;;13.90;9.30;;;;;;;2.14;65.64;98245.09;225733;1239;138252;-65
2022/12/12 22:13:50;;;;;;;16.60;10.70;;;;;;;2.06;65.67;98241.73;226740;1238;137727;-66
2022/12/12 22:18:54;;;;;;;14.70;9.90;;;;;;;1.99;65.63;98242.38;226768;1237;138500;-66
2022/12/12 22:23:58;;;;;;;17.90;10.60;;;;;;;1.91;65.67;98249.34;225604;1239;138259;-65
2022/12/12 22:29:08;;;;;;;14.20;9.40;;;;;;;1.91;65.76;98252.63;226327;1229;138474;-65
2022/12/12 22:34:17;;;;;;;12.60;8.90;;;;;;;1.85;65.60;98260.23;225734;1239;137780;-65
2022/12/12 22:39:25;;;;;;;14.60;9.60;;;;;;;1.80;65.64;98261.98;226863;1237;137517;-65
2022/12/12 22:44:29;;;;;;;15.00;8.70;;;;;;;1.73;65.72;98262.10;225747;1244;137781;-65
2022/12/12 22:49:32;;;;;;;17.30;10.60;;;;;;;1.64;65.74;98275.02;226035;1239;137724;-65
2022/12/12 22:54:35;;;;;;;16.70;10.50;;;;;;;1.63;65.64;98282.93;225612;1244;138332;-66
2022/12/12 22:59:38;;;;;;;15.70;9.00;;;;;;;1.60;65.72;98284.97;225610;1252;138517;-66
2022/12/12 23:04:42;;;;;;;13.90;8.90;;;;;;;1.51;65.82;98289.70;225607;1243;139139;-65
2022/12/12 23:09:51;;;;;;;13.00;8.40;;;;;;;1.53;65.79;98293.12;226592;1240;138649;-65
2022/12/12 23:14:54;;;;;;;15.30;8.40;;;;;;;1.59;65.68;98293.95;225582;1252;138560;-65
2022/12/12 23:19:57;;;;;;;14.10;8.10;;;;;;;1.63;65.27;98298.15;225633;1236;137804;-65
2022/12/12 23:25:01;;;;;;;12.90;8.20;;;;;;;1.60;64.97;98303.88;227480;1236;138234;-67
2022/12/12 23:30:05;;;;;;;13.50;9.00;;;;;;;1.55;64.84;98310.49;226177;1251;138260;-65
2022/12/12 23:35:08;;;;;;;12.10;8.10;;;;;;;1.49;64.94;98322.45;226143;1246;139100;-64
2022/12/12 23:40:11;;;;;;;11.30;7.60;;;;;;;1.42;65.05;98325.88;225938;1245;138246;-65
2022/12/12 23:45:18;;;;;;;12.90;7.50;;;;;;;1.34;65.19;98328.95;227343;1237;138270;-63
2022/12/12 23:51:22;;;;;;;12.30;7.00;;;;;;;1.32;65.01;98330.59;225944;1245;137484;-63
2022/12/12 23:56:23;;;;;;;11.20;7.40;;;;;;;1.28;65.10;98335.30;225967;1240;137782;-63
